Flight Track Log - Related Links

Times and Time Zones

All times are in EDT time to prevent confusion due to time zone crossing. See the MTN8305 flight status page for this flight to view local times or setup timezone preferences in your user account.

Time Position Orientation Groundspeed Altitude Reporting Facility
EDT Latitude Longitude Course Direction KTS MPH feet Rate Location/Type
Fri 04:02:06 AM 40.7333 -74.1667 270° West 98 113 4,900  Level New York TRACON
Fri 04:03:06 AM 40.7167 -74.2000 237° Southwest 102 117 5,400 550 Climbing New York TRACON
Fri 04:04:06 AM 40.7167 -74.2500 270° West 108 124 6,000 316 Climbing New York TRACON
Fri 04:05:00 AM 40.7167 -74.2833 270° West 138 159 6,000  Level New York TRACON
Fri 04:06:00 AM 40.7000 -74.3333 246° West 142 163 6,000  Level New York TRACON
Fri 04:07:00 AM 40.6333 -74.4437 270° West  Level FlightAware Approximate
Fri 04:07:00 AM 40.6833 -74.3833 246° West 138 159 6,000  Level New York TRACON
Fri 04:08:00 AM 40.6833 -74.4333 270° West 138 159 6,000  Level New York TRACON
Fri 04:09:00 AM 40.6667 -74.4833 246° West 137 158 6,000  Level New York TRACON
Fri 04:09:55 AM 40.6667 -74.5167 270° West 134 154 6,000  Level New York TRACON
Fri 04:11:01 AM 40.6500 -74.5667 246° West 136 157 6,000  Level New York TRACON
Fri 04:12:07 AM 40.6333 -74.6333 252° West 136 157 6,000  Level New York TRACON
Fri 04:13:13 AM 40.6333 -74.6833 270° West 137 158 6,000  Level New York TRACON
Fri 04:14:13 AM 40.6167 -74.7333 246° West 130 150 6,000  Level New York TRACON
Fri 04:15:13 AM 40.6167 -74.7667 270° West 129 148 6,000  Level New York TRACON
Fri 04:16:13 AM 40.6000 -74.8167 246° West 133 153 6,000  Level New York TRACON
Fri 04:17:13 AM 40.6000 -74.8667 270° West 135 155 6,000  Level New York TRACON
Fri 04:18:19 AM 40.5833 -74.9167 246° West 130 150 6,000  Level New York TRACON
Fri 04:19:13 AM 40.5667 -74.9667 246° West 131 151 6,000  Level New York TRACON
Fri 04:20:14 AM 40.5667 -75.0000 270° West 131 151 6,000  Level New York TRACON
Fri 04:21:14 AM 40.5500 -75.0500 246° West 121 139 6,000  Level New York TRACON
Fri 04:22:08 AM 40.5333 -75.0833 237° Southwest 150 173 6,000  Level New York TRACON
Fri 04:23:08 AM 40.5000 -75.1167 217° Southwest 156 180 6,000  Level New York TRACON
Fri 04:24:14 AM 40.4667 -75.1500 217° Southwest 158 182 6,000 -62 Level New York TRACON
Fri 04:24:45 AM 40.4500 -75.1667 217° Southwest 156 180 5,900 -66 Descending Philadelphia TRACON
Fri 04:25:45 AM 40.4000 -75.2000 207° Southwest 158 182 5,900  Level Philadelphia TRACON
Fri 04:26:45 AM 40.3667 -75.2333 217° Southwest 153 176 5,900  Level Philadelphia TRACON
Fri 04:27:45 AM 40.3333 -75.2667 217° Southwest 156 180 5,900  Level Philadelphia TRACON
Fri 04:28:39 AM 40.3000 -75.3000 217° Southwest 158 182 5,900  Level Philadelphia TRACON
Fri 04:29:45 AM 40.2667 -75.3333 217° Southwest 155 178 5,900  Level Philadelphia TRACON
Fri 04:30:45 AM 40.2333 -75.3667 217° Southwest 153 176 5,900  Level Philadelphia TRACON
Fri 04:31:45 AM 40.2000 -75.4167 229° Southwest 143 165 5,900  Level Philadelphia TRACON
Fri 04:32:45 AM 40.1833 -75.4500 237° Southwest 146 168 5,900  Level Philadelphia TRACON
Fri 04:33:45 AM 40.1500 -75.4833 217° Southwest 151 174 5,900  Level Philadelphia TRACON
Fri 04:34:46 AM 40.1167 -75.5167 217° Southwest 152 175 5,900  Level Philadelphia TRACON
Fri 04:35:46 AM 40.0833 -75.5667 229° Southwest 147 169 5,900  Level Philadelphia TRACON
Fri 04:36:46 AM 40.0500 -75.6000 217° Southwest 152 175 5,900  Level Philadelphia TRACON
Fri 04:37:46 AM 40.0167 -75.6333 217° Southwest 154 177 5,900  Level Philadelphia TRACON
Fri 04:38:46 AM 40.0000 -75.6667 237° Southwest 153 176 5,900  Level Philadelphia TRACON
Fri 04:39:46 AM 39.9667 -75.7167 229° Southwest 154 177 5,900  Level Philadelphia TRACON
Fri 04:40:46 AM 39.9333 -75.7500 217° Southwest 149 171 5,900  Level Philadelphia TRACON
Fri 04:41:46 AM 39.9000 -75.7833 217° Southwest 151 174 5,900  Level Philadelphia TRACON
Fri 04:42:40 AM 39.8667 -75.8167 218° Southwest 154 177 5,900  Level Philadelphia TRACON
Fri 04:43:40 AM 39.8500 -75.8667 247° West 153 176 5,900  Level Philadelphia TRACON
Fri 04:44:40 AM 39.8167 -75.9000 218° Southwest 153 176 5,900 39 Level Philadelphia TRACON
Fri 04:46:15 AM 39.7667 -75.9500 218° Southwest 159 183 6,000 39 Climbing Potomac TRACON
Fri 04:47:15 AM 39.7333 -76.0000 229° Southwest 157 181 6,000  Level Potomac TRACON
Fri 04:48:15 AM 39.7000 -76.0333 218° Southwest 157 181 6,000  Level Potomac TRACON
Fri 04:49:15 AM 39.6667 -76.0667 218° Southwest 160 184 6,000  Level Potomac TRACON
Fri 04:50:15 AM 39.6333 -76.1167 229° Southwest 160 184 6,000  Level Potomac TRACON
Fri 04:51:15 AM 39.6000 -76.1500 218° Southwest 159 183 6,000  Level Potomac TRACON
Fri 04:52:15 AM 39.5667 -76.2000 229° Southwest 156 180 6,000  Level Potomac TRACON
Fri 04:53:15 AM 39.5333 -76.2333 218° Southwest 156 180 6,000 -50 Level Potomac TRACON
Fri 04:54:15 AM 39.5000 -76.2667 218° Southwest 160 184 5,900 -200 Descending Potomac TRACON
Fri 04:55:15 AM 39.4667 -76.3167 229° Southwest 168 193 5,600 -300 Descending Potomac TRACON
Fri 04:56:15 AM 39.4333 -76.3500 218° Southwest 169 194 5,300 -350 Descending Potomac TRACON
Fri 04:57:15 AM 39.4000 -76.4000 229° Southwest 170 196 4,900 -450 Descending Potomac TRACON
Fri 04:58:15 AM 39.3667 -76.4333 218° Southwest 178 205 4,400 -500 Descending Potomac TRACON
Fri 04:59:15 AM 39.3333 -76.4833 229° Southwest 180 207 3,900 -500 Descending Potomac TRACON
Fri 05:00:15 AM 39.2833 -76.5333 218° Southwest 184 212 3,400 -550 Descending Potomac TRACON
Fri 05:01:15 AM 39.2500 -76.5667 218° Southwest 189 217 2,800 -694 Descending Potomac TRACON
Fri 05:02:16 AM 39.2000 -76.6000 207° Southwest 190 219 2,000 -787 Descending Potomac TRACON

Login

Don't have an account? Register now (free) for customized features, flight alerts, and more!